createdAt,value
2022-08-12T00:00:24.815Z,1015.7
2022-08-12T00:02:05.878Z,1015.6
2022-08-12T00:03:08.697Z,1015.7
2022-08-12T00:04:22.312Z,1015.7
2022-08-12T00:05:25.789Z,1015.7
2022-08-12T00:06:28.488Z,1015.7
2022-08-12T00:07:31.120Z,1015.7
2022-08-12T00:08:37.563Z,1015.7
2022-08-12T00:09:40.881Z,1015.7
2022-08-12T00:10:43.233Z,1015.7
2022-08-12T00:11:45.662Z,1015.7
2022-08-12T00:12:48.812Z,1015.7
2022-08-12T00:13:51.190Z,1015.7
2022-08-12T00:14:54.376Z,1015.7
2022-08-12T00:15:56.675Z,1015.7
2022-08-12T00:17:01.080Z,1015.7
2022-08-12T00:18:04.540Z,1015.7
2022-08-12T00:19:08.960Z,1015.7
2022-08-12T00:20:11.806Z,1015.7
2022-08-12T00:21:14.454Z,1015.7
2022-08-12T00:22:17.547Z,1015.7
2022-08-12T00:23:20.822Z,1015.7
2022-08-12T00:24:23.730Z,1015.7
2022-08-12T00:26:24.299Z,1015.7
2022-08-12T00:27:44.547Z,1015.7
2022-08-12T00:28:47.181Z,1015.7
2022-08-12T00:29:49.751Z,1015.7
2022-08-12T00:30:52.938Z,1015.7
2022-08-12T00:31:55.495Z,1015.7
2022-08-12T00:32:58.361Z,1015.7
2022-08-12T00:34:07.358Z,1015.7
2022-08-12T00:35:12.434Z,1015.7
2022-08-12T00:36:36.531Z,1015.7
2022-08-12T00:37:51.262Z,1015.7
2022-08-12T00:38:53.930Z,1015.7
2022-08-12T00:39:56.960Z,1015.7
2022-08-12T00:41:00.085Z,1015.7
2022-08-12T00:42:03.196Z,1015.7
2022-08-12T00:43:05.830Z,1015.7
2022-08-12T00:44:08.650Z,1015.7
2022-08-12T00:45:14.144Z,1015.7
2022-08-12T00:46:16.834Z,1015.7
2022-08-12T00:47:26.135Z,1015.7
2022-08-12T00:48:29.004Z,1015.7
2022-08-12T00:49:31.296Z,1015.6
2022-08-12T00:50:34.363Z,1015.7
2022-08-12T00:51:37.265Z,1015.7
2022-08-12T00:52:40.644Z,1015.7
2022-08-12T00:53:43.849Z,1015.6
2022-08-12T00:54:46.473Z,1015.6
2022-08-12T00:55:48.749Z,1015.7
2022-08-12T00:56:51.468Z,1015.6
2022-08-12T00:57:55.208Z,1015.6
2022-08-12T00:58:57.280Z,1015.6
2022-08-12T00:59:59.938Z,1015.6
2022-08-12T01:01:02.436Z,1015.6
2022-08-12T01:02:12.800Z,1015.6
2022-08-12T01:03:16.511Z,1015.6
2022-08-12T01:04:19.134Z,1015.6
2022-08-12T01:05:22.209Z,1015.6
2022-08-12T01:06:24.561Z,1015.6
2022-08-12T01:07:27.536Z,1015.6
2022-08-12T01:08:30.163Z,1015.6
2022-08-12T01:09:33.414Z,1015.6
2022-08-12T01:10:36.317Z,1015.6
2022-08-12T01:11:38.676Z,1015.6
2022-08-12T01:12:41.737Z,1015.6
2022-08-12T01:13:43.778Z,1015.6
2022-08-12T01:14:46.394Z,1015.6
2022-08-12T01:15:48.682Z,1015.6
2022-08-12T01:16:52.023Z,1015.6
2022-08-12T01:17:54.391Z,1015.6
2022-08-12T01:18:57.585Z,1015.6
2022-08-12T01:20:00.775Z,1015.6
2022-08-12T01:21:03.392Z,1015.5
2022-08-12T01:22:06.081Z,1015.6
2022-08-12T01:23:08.366Z,1015.7
2022-08-12T01:24:31.930Z,1015.6
2022-08-12T01:25:41.574Z,1015.7
2022-08-12T01:26:59.555Z,1015.6
2022-08-12T01:28:01.922Z,1015.6
2022-08-12T01:29:05.342Z,1015.6
2022-08-12T01:30:09.230Z,1015.6
2022-08-12T01:31:16.571Z,1015.6
2022-08-12T01:32:19.418Z,1015.6
2022-08-12T01:33:22.663Z,1015.6
2022-08-12T01:34:37.875Z,1015.6
2022-08-12T01:35:41.468Z,1015.6
2022-08-12T01:36:43.759Z,1015.6
2022-08-12T01:37:47.007Z,1015.6
2022-08-12T01:38:49.087Z,1015.6
2022-08-12T01:40:37.791Z,1015.5
2022-08-12T01:41:54.082Z,1015.6
2022-08-12T01:42:57.031Z,1015.5
2022-08-12T01:43:59.605Z,1015.6
2022-08-12T01:45:02.178Z,1015.6
2022-08-12T01:46:04.882Z,1015.5
2022-08-12T01:47:07.459Z,1015.5
2022-08-12T01:48:10.642Z,1015.5
2022-08-12T01:49:13.270Z,1015.5
2022-08-12T01:50:23.709Z,1015.5
2022-08-12T01:52:22.769Z,1015.5
2022-08-12T01:53:25.666Z,1015.5
2022-08-12T01:54:28.563Z,1015.5
2022-08-12T01:55:30.837Z,1015.5
2022-08-12T01:56:33.712Z,1015.5
2022-08-12T01:58:01.076Z,1015.5
2022-08-12T01:59:05.334Z,1015.6
2022-08-12T02:00:15.081Z,1015.5
2022-08-12T02:01:18.715Z,1015.5
2022-08-12T02:02:21.874Z,1015.5
2022-08-12T02:03:24.994Z,1015.5
2022-08-12T02:04:28.110Z,1015.5
2022-08-12T02:05:33.673Z,1015.5
2022-08-12T02:06:35.961Z,1015.4
2022-08-12T02:07:38.609Z,1015.5
2022-08-12T02:08:40.672Z,1015.4
2022-08-12T02:09:43.850Z,1015.5
2022-08-12T02:10:52.216Z,1015.5
2022-08-12T02:11:58.992Z,1015.5
2022-08-12T02:13:11.165Z,1015.5
2022-08-12T02:14:14.265Z,1015.4
2022-08-12T02:15:16.872Z,1015.5
2022-08-12T02:16:19.164Z,1015.4
2022-08-12T02:17:56.829Z,1015.4
2022-08-12T02:18:59.756Z,1015.4
2022-08-12T02:20:02.633Z,1015.4
2022-08-12T02:21:05.835Z,1015.4
2022-08-12T02:22:08.493Z,1015.4
2022-08-12T02:23:11.133Z,1015.4
2022-08-12T02:24:14.034Z,1015.4
2022-08-12T02:25:16.734Z,1015.4
2022-08-12T02:26:19.301Z,1015.4
2022-08-12T02:27:22.281Z,1015.4
2022-08-12T02:28:24.912Z,1015.5
2022-08-12T02:29:27.480Z,1015.5
2022-08-12T02:30:42.600Z,1015.4
2022-08-12T02:31:45.224Z,1015.4
2022-08-12T02:32:48.187Z,1015.4
2022-08-12T02:33:50.694Z,1015.5
2022-08-12T02:34:53.815Z,1015.4
2022-08-12T02:35:56.992Z,1015.4
2022-08-12T02:37:04.092Z,1015.4
2022-08-12T02:38:06.813Z,1015.4
2022-08-12T02:39:09.663Z,1015.4
2022-08-12T02:40:12.608Z,1015.4
2022-08-12T02:41:15.456Z,1015.4
2022-08-12T02:42:18.082Z,1015.4
2022-08-12T02:43:20.930Z,1015.4
2022-08-12T02:44:23.822Z,1015.4
2022-08-12T02:45:27.055Z,1015.4
2022-08-12T02:46:29.630Z,1015.4
2022-08-12T02:48:01.322Z,1015.4
2022-08-12T02:49:04.565Z,1015.4
2022-08-12T02:50:07.537Z,1015.4
2022-08-12T02:51:10.456Z,1015.3
2022-08-12T02:52:12.804Z,1015.3
2022-08-12T02:53:15.219Z,1015.3
2022-08-12T02:54:18.132Z,1015.4
2022-08-12T02:55:35.279Z,1015.4
2022-08-12T02:56:38.726Z,1015.4
2022-08-12T02:57:41.913Z,1015.3
2022-08-12T02:58:45.942Z,1015.3
2022-08-12T02:59:51.035Z,1015.3
2022-08-12T03:00:54.133Z,1015.3
2022-08-12T03:01:57.353Z,1015.3
2022-08-12T03:03:00.275Z,1015.3
2022-08-12T03:04:03.416Z,1015.3
2022-08-12T03:05:06.037Z,1015.3
2022-08-12T03:06:08.166Z,1015.3
2022-08-12T03:07:10.460Z,1015.3
2022-08-12T03:08:33.163Z,1015.2
2022-08-12T03:10:07.041Z,1015.2
2022-08-12T03:11:49.530Z,1015.2
2022-08-12T03:12:56.622Z,1015.2
2022-08-12T03:14:00.078Z,1015.2
2022-08-12T03:15:03.206Z,1015.2
2022-08-12T03:16:05.836Z,1015.2
2022-08-12T03:17:08.789Z,1015.2
2022-08-12T03:18:28.504Z,1015.2
2022-08-12T03:19:31.864Z,1015.2
2022-08-12T03:20:35.040Z,1015.2
2022-08-12T03:22:09.767Z,1015.2
2022-08-12T03:23:30.981Z,1015.1
2022-08-12T03:24:35.690Z,1015.2
2022-08-12T03:25:40.643Z,1015.2
2022-08-12T03:26:42.995Z,1015.2
2022-08-12T03:27:45.902Z,1015.1
2022-08-12T03:28:49.078Z,1015.1
2022-08-12T03:29:52.763Z,1015.1
2022-08-12T03:30:57.390Z,1015.1
2022-08-12T03:32:01.289Z,1015.2
2022-08-12T03:33:04.415Z,1015.1
2022-08-12T03:34:06.743Z,1015.1
2022-08-12T03:35:41.881Z,1015.1
2022-08-12T03:36:45.059Z,1015.1
2022-08-12T03:37:47.900Z,1015.1
2022-08-12T03:38:50.852Z,1015.1
2022-08-12T03:39:54.136Z,1015.1
2022-08-12T03:40:57.817Z,1015.2
2022-08-12T03:42:00.700Z,1015.1
2022-08-12T03:43:03.302Z,1015.1
2022-08-12T03:44:05.954Z,1015.1
2022-08-12T03:45:08.575Z,1015.1
2022-08-12T03:46:11.184Z,1015
2022-08-12T03:47:14.094Z,1015.1
2022-08-12T03:48:19.750Z,1015.1
2022-08-12T03:49:22.724Z,1015.1
2022-08-12T03:50:25.567Z,1015
2022-08-12T03:51:27.988Z,1015.1
2022-08-12T03:52:30.432Z,1015.1
2022-08-12T03:53:33.689Z,1015.1
2022-08-12T03:54:42.642Z,1015
2022-08-12T03:55:45.951Z,1015.1
2022-08-12T03:56:48.237Z,1015.1
2022-08-12T03:57:50.866Z,1015.1
2022-08-12T03:58:53.832Z,1015.1
2022-08-12T03:59:56.893Z,1015.1
2022-08-12T04:01:00.011Z,1015.1
2022-08-12T04:02:03.519Z,1015.2
2022-08-12T04:03:13.082Z,1015.1
2022-08-12T04:04:15.706Z,1015.1
2022-08-12T04:05:22.973Z,1015.1
2022-08-12T04:06:58.973Z,1015.2
2022-08-12T04:08:01.531Z,1015.2
2022-08-12T04:09:03.893Z,1015.2
2022-08-12T04:10:06.272Z,1015.2
2022-08-12T04:11:09.179Z,1015.2
2022-08-12T04:12:11.304Z,1015.2
2022-08-12T04:13:13.597Z,1015.2
2022-08-12T04:14:16.294Z,1015.2
2022-08-12T04:15:18.928Z,1015.3
2022-08-12T04:16:21.497Z,1015.3
2022-08-12T04:17:24.420Z,1015.3
2022-08-12T04:18:27.550Z,1015.3
2022-08-12T04:19:29.969Z,1015.3
2022-08-12T04:20:32.881Z,1015.3
2022-08-12T04:21:35.786Z,1015.3
2022-08-12T04:23:05.865Z,1015.3
2022-08-12T04:24:08.498Z,1015.3
2022-08-12T04:25:11.034Z,1015.3
2022-08-12T04:26:15.700Z,1015.3
2022-08-12T04:27:17.838Z,1015.3
2022-08-12T04:28:20.192Z,1015.3
2022-08-12T04:30:33.493Z,1015.4
2022-08-12T04:31:36.324Z,1015.3
2022-08-12T04:32:44.810Z,1015.4
2022-08-12T04:33:49.503Z,1015.3
2022-08-12T04:34:52.699Z,1015.4
2022-08-12T04:35:55.594Z,1015.3
2022-08-12T04:36:58.776Z,1015.4
2022-08-12T04:38:01.764Z,1015.3
2022-08-12T04:39:04.938Z,1015.3
2022-08-12T04:40:08.158Z,1015.4
2022-08-12T04:41:11.053Z,1015.4
2022-08-12T04:42:13.661Z,1015.4
2022-08-12T04:44:02.634Z,1015.3
2022-08-12T04:45:05.782Z,1015.4
2022-08-12T04:46:08.121Z,1015.4
2022-08-12T04:47:11.024Z,1015.4
2022-08-12T04:48:16.274Z,1015.4
2022-08-12T04:49:19.798Z,1015.4
2022-08-12T04:50:37.224Z,1015.4
2022-08-12T04:51:39.901Z,1015.4
2022-08-12T04:52:43.016Z,1015.4
2022-08-12T04:53:46.018Z,1015.4
2022-08-12T04:54:48.303Z,1015.5
2022-08-12T04:55:51.831Z,1015.4
2022-08-12T04:57:05.281Z,1015.4
2022-08-12T04:58:08.283Z,1015.5
2022-08-12T04:59:11.238Z,1015.5
2022-08-12T05:00:13.863Z,1015.5
2022-08-12T05:01:17.055Z,1015.4
2022-08-12T05:02:23.064Z,1015.4
2022-08-12T05:03:26.044Z,1015.5
2022-08-12T05:04:28.160Z,1015.4
2022-08-12T05:05:36.557Z,1015.4
2022-08-12T05:06:39.273Z,1015.4
2022-08-12T05:07:55.315Z,1015.4
2022-08-12T05:08:58.734Z,1015.4
2022-08-12T05:10:03.099Z,1015.5
2022-08-12T05:11:06.569Z,1015.4
2022-08-12T05:12:09.408Z,1015.4
2022-08-12T05:13:12.839Z,1015.5
2022-08-12T05:14:15.622Z,1015.5
2022-08-12T05:15:30.423Z,1015.5
2022-08-12T05:16:36.556Z,1015.5
2022-08-12T05:17:47.623Z,1015.5
2022-08-12T05:18:50.911Z,1015.5
2022-08-12T05:19:57.969Z,1015.4
2022-08-12T05:21:03.760Z,1015.4
2022-08-12T05:22:07.528Z,1015.4
2022-08-12T05:23:13.945Z,1015.4
2022-08-12T05:24:16.510Z,1015.5
2022-08-12T05:25:22.710Z,1015.4
2022-08-12T05:26:25.628Z,1015.4
2022-08-12T05:27:28.189Z,1015.4
2022-08-12T05:28:33.914Z,1015.4
2022-08-12T05:30:09.406Z,1015.4
2022-08-12T05:31:11.759Z,1015.4
2022-08-12T05:32:14.673Z,1015.5
2022-08-12T05:33:17.037Z,1015.4
2022-08-12T05:34:23.826Z,1015.4
2022-08-12T05:35:29.032Z,1015.4
2022-08-12T05:36:32.515Z,1015.4
2022-08-12T05:37:35.712Z,1015.4
2022-08-12T05:38:37.791Z,1015.4
2022-08-12T05:39:39.944Z,1015.4
2022-08-12T05:40:42.718Z,1015.4
2022-08-12T05:41:45.911Z,1015.4
2022-08-12T05:42:48.223Z,1015.4
2022-08-12T05:43:51.753Z,1015.4
2022-08-12T05:44:54.541Z,1015.4
2022-08-12T05:45:57.281Z,1015.4
2022-08-12T05:46:59.392Z,1015.4
2022-08-12T05:48:02.102Z,1015.4
2022-08-12T05:49:05.072Z,1015.4
2022-08-12T05:50:07.599Z,1015.5
2022-08-12T05:51:15.014Z,1015.5
2022-08-12T05:52:19.519Z,1015.4
2022-08-12T05:53:23.657Z,1015.4
2022-08-12T05:54:57.336Z,1015.5
2022-08-12T05:56:00.895Z,1015.4
2022-08-12T05:57:03.532Z,1015.5
2022-08-12T05:58:06.106Z,1015.4
2022-08-12T05:59:08.736Z,1015.5
2022-08-12T06:00:11.980Z,1015.5
2022-08-12T06:02:13.484Z,1015.5
2022-08-12T06:03:19.351Z,1015.5
2022-08-12T06:04:22.467Z,1015.6
2022-08-12T06:05:25.384Z,1015.5
2022-08-12T06:06:29.682Z,1015.5
2022-08-12T06:08:03.152Z,1015.5
2022-08-12T06:09:05.492Z,1015.5
2022-08-12T06:10:08.775Z,1015.5
2022-08-12T06:11:11.968Z,1015.6
2022-08-12T06:12:14.656Z,1015.5
2022-08-12T06:13:53.062Z,1015.5
2022-08-12T06:15:12.439Z,1015.6
2022-08-12T06:16:14.670Z,1015.6
2022-08-12T06:17:17.015Z,1015.5
2022-08-12T06:18:19.652Z,1015.6
2022-08-12T06:19:22.509Z,1015.5
2022-08-12T06:21:35.839Z,1015.5
2022-08-12T06:22:42.717Z,1015.5
2022-08-12T06:23:45.962Z,1015.5
2022-08-12T06:24:48.590Z,1015.6
2022-08-12T06:25:51.993Z,1015.6
2022-08-12T06:26:54.961Z,1015.6
2022-08-12T06:28:08.478Z,1015.6
2022-08-12T06:29:11.124Z,1015.6
2022-08-12T06:30:35.203Z,1015.6
2022-08-12T06:31:42.298Z,1015.6
2022-08-12T06:33:11.565Z,1015.6
2022-08-12T06:37:00.149Z,1015.6
2022-08-12T06:38:04.127Z,1015.6
2022-08-12T06:39:15.897Z,1015.6
2022-08-12T06:40:18.907Z,1015.6
2022-08-12T06:41:22.029Z,1015.6
2022-08-12T06:42:33.669Z,1015.6
2022-08-12T06:44:07.974Z,1015.6
2022-08-12T06:45:13.077Z,1015.6
2022-08-12T06:46:15.408Z,1015.6
2022-08-12T06:47:18.032Z,1015.6
2022-08-12T06:48:20.679Z,1015.6
2022-08-12T06:49:23.802Z,1015.5
2022-08-12T06:50:27.828Z,1015.5
2022-08-12T06:51:56.040Z,1015.6
2022-08-12T06:53:00.197Z,1015.6
2022-08-12T06:54:03.111Z,1015.6
2022-08-12T06:55:06.645Z,1015.6
2022-08-12T06:56:12.789Z,1015.6
2022-08-12T06:58:09.741Z,1015.6
2022-08-12T06:59:13.504Z,1015.6
2022-08-12T07:00:16.203Z,1015.5
2022-08-12T07:01:19.073Z,1015.6
2022-08-12T07:02:22.724Z,1015.6
2022-08-12T07:03:25.404Z,1015.6
2022-08-12T07:04:43.465Z,1015.6
2022-08-12T07:05:46.388Z,1015.6
2022-08-12T07:06:52.445Z,1015.5
2022-08-12T07:07:55.351Z,1015.6
2022-08-12T07:08:58.322Z,1015.6
2022-08-12T07:10:08.563Z,1015.6
2022-08-12T07:11:11.783Z,1015.5
2022-08-12T07:12:16.968Z,1015.5
2022-08-12T07:13:19.596Z,1015.5
2022-08-12T07:14:22.017Z,1015.5
2022-08-12T07:15:24.375Z,1015.5
2022-08-12T07:16:27.291Z,1015.5
2022-08-12T07:17:30.472Z,1015.5
2022-08-12T07:18:32.811Z,1015.5
2022-08-12T07:19:45.313Z,1015.5
2022-08-12T07:20:53.777Z,1015.5
2022-08-12T07:22:02.943Z,1015.5
2022-08-12T07:23:06.166Z,1015.5
2022-08-12T07:24:08.739Z,1015.5
2022-08-12T07:25:11.592Z,1015.5
2022-08-12T07:26:13.669Z,1015.5
2022-08-12T07:27:19.116Z,1015.5
2022-08-12T07:28:21.779Z,1015.5
2022-08-12T07:30:02.987Z,1015.5
2022-08-12T07:31:08.472Z,1015.5
2022-08-12T07:32:11.669Z,1015.5
2022-08-12T07:33:14.525Z,1015.5
2022-08-12T07:34:17.440Z,1015.5
2022-08-12T07:35:20.669Z,1015.5
2022-08-12T07:36:22.794Z,1015.6
2022-08-12T07:37:25.091Z,1015.6
2022-08-12T07:38:30.735Z,1015.6
2022-08-12T07:39:35.540Z,1015.6
2022-08-12T07:41:02.935Z,1015.6
2022-08-12T07:42:05.635Z,1015.5
2022-08-12T07:43:08.305Z,1015.5
2022-08-12T07:44:10.388Z,1015.6
2022-08-12T07:45:13.607Z,1015.6
2022-08-12T07:46:16.599Z,1015.6
2022-08-12T07:47:19.225Z,1015.6
2022-08-12T07:48:22.347Z,1015.6
2022-08-12T07:49:26.425Z,1015.6
2022-08-12T07:50:29.279Z,1015.6
2022-08-12T07:51:32.526Z,1015.6
2022-08-12T07:52:35.256Z,1015.6
2022-08-12T07:54:02.898Z,1015.6
2022-08-12T07:55:05.773Z,1015.6
2022-08-12T07:56:08.721Z,1015.6
2022-08-12T07:57:11.697Z,1015.6
2022-08-12T07:58:14.902Z,1015.5
2022-08-12T07:59:17.304Z,1015.5
2022-08-12T08:00:19.930Z,1015.5
2022-08-12T08:01:22.681Z,1015.5
2022-08-12T08:02:36.594Z,1015.5
2022-08-12T08:03:49.683Z,1015.5
2022-08-12T08:04:52.869Z,1015.6
2022-08-12T08:05:55.170Z,1015.6
2022-08-12T08:06:57.516Z,1015.6
2022-08-12T08:08:00.995Z,1015.6
2022-08-12T08:09:03.949Z,1015.6
2022-08-12T08:10:06.310Z,1015.6
2022-08-12T08:11:11.205Z,1015.6
2022-08-12T08:12:19.885Z,1015.6
2022-08-12T08:13:26.506Z,1015.6
2022-08-12T08:14:29.469Z,1015.6
2022-08-12T08:16:04.058Z,1015.6
2022-08-12T08:17:07.553Z,1015.6
2022-08-12T08:18:10.187Z,1015.6
2022-08-12T08:19:12.330Z,1015.6
2022-08-12T08:20:15.180Z,1015.5
2022-08-12T08:21:18.085Z,1015.6
2022-08-12T08:22:42.660Z,1015.5
2022-08-12T08:23:57.545Z,1015.6
2022-08-12T08:25:37.733Z,1015.5
2022-08-12T08:26:40.424Z,1015.5
2022-08-12T08:27:43.055Z,1015.6
2022-08-12T08:28:45.701Z,1015.5
2022-08-12T08:29:48.372Z,1015.5
2022-08-12T08:30:51.774Z,1015.5
2022-08-12T08:31:54.469Z,1015.6
2022-08-12T08:32:57.088Z,1015.6
2022-08-12T08:34:53.178Z,1015.6
2022-08-12T08:35:59.845Z,1015.6
2022-08-12T08:37:15.495Z,1015.6
2022-08-12T08:38:34.992Z,1015.6
2022-08-12T08:39:38.425Z,1015.6
2022-08-12T08:40:41.708Z,1015.6
2022-08-12T08:42:20.304Z,1015.6
2022-08-12T08:43:23.394Z,1015.6
2022-08-12T08:44:58.609Z,1015.5
2022-08-12T08:46:01.419Z,1015.6
2022-08-12T08:47:04.061Z,1015.6
2022-08-12T08:48:06.682Z,1015.6
2022-08-12T08:49:09.602Z,1015.6
2022-08-12T08:50:12.027Z,1015.5
2022-08-12T08:51:14.602Z,1015.5
2022-08-12T08:52:41.156Z,1015.5
2022-08-12T08:53:53.198Z,1015.5
2022-08-12T08:54:55.510Z,1015.5
2022-08-12T08:56:06.354Z,1015.5
2022-08-12T08:57:09.491Z,1015.5
2022-08-12T08:58:12.462Z,1015.5
2022-08-12T08:59:15.580Z,1015.5
2022-08-12T09:00:18.088Z,1015.5
2022-08-12T09:01:20.921Z,1015.5
2022-08-12T09:02:24.868Z,1015.5
2022-08-12T09:05:15.219Z,1015.5
2022-08-12T09:06:38.319Z,1015.5
2022-08-12T09:30:14.092Z,1015.4
2022-08-12T09:32:10.160Z,1015.3
2022-08-12T09:35:44.253Z,1015.3
2022-08-12T09:37:22.281Z,1015.3
2022-08-12T09:38:32.358Z,1015.3
2022-08-12T09:42:10.241Z,1015.3
2022-08-12T09:44:40.138Z,1015.3
2022-08-12T09:46:22.336Z,1015.3
2022-08-12T09:47:34.065Z,1015.3
2022-08-12T09:48:56.074Z,1015.2
2022-08-12T09:50:05.287Z,1015.3
2022-08-12T09:51:43.518Z,1015.2
2022-08-12T09:52:57.459Z,1015.2
2022-08-12T09:54:35.538Z,1015.2
2022-08-12T09:57:03.440Z,1015.1
2022-08-12T10:00:28.194Z,1015.1
2022-08-12T10:02:50.333Z,1015.1
2022-08-12T10:04:05.102Z,1015.1
2022-08-12T10:05:20.312Z,1015.1
2022-08-12T10:06:36.454Z,1015
2022-08-12T10:08:02.976Z,1015
2022-08-12T10:09:06.176Z,1015
2022-08-12T10:10:30.364Z,1015
2022-08-12T10:12:12.931Z,1015
2022-08-12T10:14:15.685Z,1015
2022-08-12T10:16:05.406Z,1015
2022-08-12T10:17:24.888Z,1015
2022-08-12T10:18:28.697Z,1014.9
2022-08-12T10:19:37.055Z,1014.9
2022-08-12T10:20:39.480Z,1014.9
2022-08-12T10:21:42.673Z,1014.9
2022-08-12T10:22:50.120Z,1014.9
2022-08-12T10:23:57.564Z,1014.9
2022-08-12T10:25:00.934Z,1014.8
2022-08-12T10:26:39.632Z,1014.8
2022-08-12T10:28:09.849Z,1014.9
2022-08-12T10:30:44.291Z,1014.8
2022-08-12T10:32:42.807Z,1014.7
2022-08-12T10:34:27.098Z,1014.7
2022-08-12T10:35:38.621Z,1014.7
2022-08-12T10:36:44.818Z,1014.7
2022-08-12T10:38:44.024Z,1014.6
2022-08-12T10:40:07.300Z,1014.6
2022-08-12T10:41:59.946Z,1014.5
2022-08-12T10:43:04.915Z,1014.6
2022-08-12T10:44:10.290Z,1014.6
2022-08-12T10:45:24.347Z,1014.6
2022-08-12T10:46:32.261Z,1014.6
2022-08-12T10:48:27.249Z,1014.5
2022-08-12T10:50:22.332Z,1014.5
2022-08-12T10:53:46.968Z,1014.4
2022-08-12T10:55:13.031Z,1014.4
2022-08-12T10:56:19.391Z,1014.4
2022-08-12T10:58:27.783Z,1014.4
2022-08-12T11:00:35.352Z,1014.3
2022-08-12T11:08:39.966Z,1014.3
2022-08-12T11:10:02.678Z,1014.3
2022-08-12T11:11:16.814Z,1014.3
2022-08-12T11:14:51.340Z,1014.2
2022-08-12T11:16:23.280Z,1014.2
2022-08-12T11:17:55.002Z,1014.2
2022-08-12T11:19:06.450Z,1014.2
2022-08-12T11:20:15.546Z,1014.2
2022-08-12T11:21:19.243Z,1014.2
2022-08-12T11:23:37.245Z,1014.1
2022-08-12T11:24:53.674Z,1014.1
2022-08-12T11:26:06.897Z,1014.1
2022-08-12T11:27:12.226Z,1014
2022-08-12T11:28:36.708Z,1014
2022-08-12T11:30:30.463Z,1014
2022-08-12T11:32:01.688Z,1014
2022-08-12T11:33:23.861Z,1014
2022-08-12T11:36:00.583Z,1014
2022-08-12T11:37:05.058Z,1014
2022-08-12T11:38:28.858Z,1014
2022-08-12T11:41:09.968Z,1014
2022-08-12T11:42:13.092Z,1014
2022-08-12T11:43:20.619Z,1013.9
2022-08-12T11:44:43.599Z,1013.9
2022-08-12T11:45:52.782Z,1013.9
2022-08-12T11:46:59.551Z,1013.9
2022-08-12T11:48:04.028Z,1013.9
2022-08-12T11:49:06.090Z,1013.9
2022-08-12T11:50:18.962Z,1013.8
2022-08-12T11:51:40.239Z,1013.8
2022-08-12T11:52:57.278Z,1013.8
2022-08-12T11:54:02.038Z,1013.8
2022-08-12T11:55:04.685Z,1013.8
2022-08-12T11:56:06.772Z,1013.8
2022-08-12T12:03:05.140Z,1013.7
2022-08-12T12:04:10.877Z,1013.8
2022-08-12T12:05:13.310Z,1013.8
2022-08-12T12:06:23.913Z,1013.8
2022-08-12T12:08:42.585Z,1013.7
2022-08-12T12:09:56.369Z,1013.7
2022-08-12T12:10:59.619Z,1013.7
2022-08-12T12:12:03.110Z,1013.7
2022-08-12T12:14:07.033Z,1013.6
2022-08-12T12:15:40.699Z,1013.6
2022-08-12T12:16:51.369Z,1013.7
2022-08-12T12:17:56.602Z,1013.6
2022-08-12T12:18:58.456Z,1013.7
2022-08-12T12:20:00.824Z,1013.6
2022-08-12T12:21:04.352Z,1013.7
2022-08-12T12:22:27.038Z,1013.7
2022-08-12T12:23:36.756Z,1013.7
2022-08-12T12:24:39.246Z,1013.6
2022-08-12T12:26:09.815Z,1013.7
2022-08-12T12:28:05.598Z,1013.6
2022-08-12T12:30:29.725Z,1013.6
2022-08-12T12:32:12.296Z,1013.5
2022-08-12T12:33:18.701Z,1013.5
2022-08-12T12:34:30.892Z,1013.5
2022-08-12T12:36:23.109Z,1013.6
2022-08-12T12:38:12.650Z,1013.5
2022-08-12T12:39:17.889Z,1013.5
2022-08-12T12:40:31.390Z,1013.6
2022-08-12T12:43:01.784Z,1013.5
2022-08-12T12:44:25.595Z,1013.5
2022-08-12T12:45:57.902Z,1013.4
2022-08-12T12:47:01.109Z,1013.4
2022-08-12T12:48:04.374Z,1013.5
2022-08-12T12:49:11.340Z,1013.4
2022-08-12T12:50:43.692Z,1013.4
2022-08-12T12:52:21.299Z,1013.4
2022-08-12T12:54:10.106Z,1013.4
2022-08-12T12:55:13.529Z,1013.4
2022-08-12T12:56:16.816Z,1013.3
2022-08-12T12:57:59.042Z,1013.3
2022-08-12T12:59:02.976Z,1013.3
2022-08-12T13:00:06.007Z,1013.3
2022-08-12T13:01:31.934Z,1013.3
2022-08-12T13:02:53.849Z,1013.3
2022-08-12T13:04:03.092Z,1013.3
2022-08-12T13:05:16.661Z,1013.3
2022-08-12T13:06:31.968Z,1013.3
2022-08-12T13:08:00.915Z,1013.2
2022-08-12T13:09:05.403Z,1013.3
2022-08-12T13:10:16.233Z,1013.2
2022-08-12T13:11:19.354Z,1013.2
2022-08-12T13:12:53.465Z,1013.1
2022-08-12T13:14:12.529Z,1013.2
2022-08-12T13:15:47.730Z,1013.2
2022-08-12T13:16:53.627Z,1013.1
2022-08-12T13:18:04.817Z,1013.2
2022-08-12T13:19:08.078Z,1013.1
2022-08-12T13:20:10.576Z,1013.1
2022-08-12T13:21:44.785Z,1013.1
2022-08-12T13:22:46.596Z,1013.1
2022-08-12T13:23:48.455Z,1013.1
2022-08-12T13:24:57.152Z,1013
2022-08-12T13:26:00.615Z,1013.1
2022-08-12T13:27:03.565Z,1013
2022-08-12T13:28:10.089Z,1013.1
2022-08-12T13:29:15.578Z,1013
2022-08-12T13:30:18.186Z,1013.1
2022-08-12T13:31:27.490Z,1013.1
2022-08-12T13:32:42.071Z,1013.1
2022-08-12T13:34:35.562Z,1013.1
2022-08-12T13:36:11.131Z,1013.1
2022-08-12T13:37:23.889Z,1013.1
2022-08-12T13:38:56.690Z,1013.1
2022-08-12T13:39:58.774Z,1013.1
2022-08-12T13:41:01.666Z,1013.1
2022-08-12T13:42:04.151Z,1013
2022-08-12T13:43:41.944Z,1013.1
2022-08-12T13:44:46.567Z,1013
2022-08-12T13:45:55.629Z,1013
2022-08-12T13:47:00.752Z,1013
2022-08-12T13:48:29.168Z,1013.1
2022-08-12T13:49:56.206Z,1013.1
2022-08-12T13:51:04.759Z,1013
2022-08-12T13:52:08.188Z,1013
2022-08-12T13:53:39.823Z,1013
2022-08-12T13:55:15.559Z,1012.9
2022-08-12T13:56:21.107Z,1012.9
2022-08-12T13:57:25.683Z,1012.9
2022-08-12T13:58:35.066Z,1012.9
2022-08-12T13:59:55.306Z,1013
2022-08-12T14:01:04.731Z,1013
2022-08-12T14:02:11.080Z,1013
2022-08-12T14:03:13.546Z,1013
2022-08-12T14:04:18.379Z,1013
2022-08-12T14:05:39.230Z,1013
2022-08-12T14:06:45.089Z,1013
2022-08-12T14:07:53.952Z,1013
2022-08-12T14:08:57.083Z,1013
2022-08-12T14:10:21.118Z,1012.9
2022-08-12T14:11:32.620Z,1012.9
2022-08-12T14:12:34.539Z,1013
2022-08-12T14:14:13.052Z,1012.9
2022-08-12T14:15:19.155Z,1012.9
2022-08-12T14:16:52.266Z,1012.9
2022-08-12T14:17:56.614Z,1013
2022-08-12T14:18:59.990Z,1012.8
2022-08-12T14:20:49.319Z,1012.9
2022-08-12T14:22:04.734Z,1012.9
2022-08-12T14:24:08.326Z,1012.9
2022-08-12T14:25:17.080Z,1013
2022-08-12T14:26:21.899Z,1012.9
2022-08-12T14:28:06.406Z,1012.9
2022-08-12T14:29:56.602Z,1012.9
2022-08-12T14:31:32.348Z,1012.9
2022-08-12T14:32:36.561Z,1012.9
2022-08-12T14:33:44.778Z,1012.9
2022-08-12T14:34:46.800Z,1012.9
2022-08-12T14:35:49.485Z,1012.9
2022-08-12T14:36:54.663Z,1012.9
2022-08-12T14:37:59.394Z,1012.9
2022-08-12T14:39:03.279Z,1012.9
2022-08-12T14:40:07.991Z,1012.9
2022-08-12T14:41:10.627Z,1012.8
2022-08-12T14:42:17.078Z,1012.8
2022-08-12T14:43:25.951Z,1012.8
2022-08-12T14:46:08.969Z,1012.8
2022-08-12T14:47:11.547Z,1012.9
2022-08-12T14:48:15.202Z,1012.9
2022-08-12T14:51:01.350Z,1012.9
2022-08-12T14:58:34.728Z,1012.7
2022-08-12T14:59:59.971Z,1012.7
2022-08-12T15:01:06.897Z,1012.7
2022-08-12T15:02:10.924Z,1012.7
2022-08-12T15:03:15.641Z,1012.7
2022-08-12T15:04:18.206Z,1012.7
2022-08-12T15:06:39.986Z,1012.7
2022-08-12T15:08:06.761Z,1012.7
2022-08-12T15:09:13.102Z,1012.6
2022-08-12T15:10:34.418Z,1012.7
2022-08-12T15:12:03.611Z,1012.7
2022-08-12T15:13:16.261Z,1012.7
2022-08-12T15:14:19.299Z,1012.6
2022-08-12T15:15:24.303Z,1012.6
2022-08-12T15:16:27.386Z,1012.6
2022-08-12T15:17:38.558Z,1012.6
2022-08-12T15:18:59.161Z,1012.6
2022-08-12T15:22:54.311Z,1012.6
2022-08-12T15:23:57.677Z,1012.6
2022-08-12T15:25:01.847Z,1012.6
2022-08-12T15:26:04.250Z,1012.6
2022-08-12T15:27:10.003Z,1012.6
2022-08-12T15:28:23.170Z,1012.6
2022-08-12T15:29:27.737Z,1012.6
2022-08-12T15:30:32.055Z,1012.5
2022-08-12T15:32:03.568Z,1012.6
2022-08-12T15:33:46.520Z,1012.5
2022-08-12T15:34:50.029Z,1012.6
2022-08-12T15:35:55.319Z,1012.5
2022-08-12T15:36:58.115Z,1012.5
2022-08-12T15:38:12.920Z,1012.5
2022-08-12T15:39:28.254Z,1012.5
2022-08-12T15:40:46.701Z,1012.5
2022-08-12T15:41:55.835Z,1012.5
2022-08-12T15:43:08.539Z,1012.5
2022-08-12T15:44:42.478Z,1012.5
2022-08-12T15:45:48.197Z,1012.5
2022-08-12T15:46:50.277Z,1012.5
2022-08-12T15:48:20.693Z,1012.5
2022-08-12T15:49:55.241Z,1012.5
2022-08-12T15:51:08.727Z,1012.5
2022-08-12T15:52:28.046Z,1012.5
2022-08-12T15:53:31.715Z,1012.5
2022-08-12T15:54:45.522Z,1012.4
2022-08-12T15:55:50.987Z,1012.4
2022-08-12T15:57:03.528Z,1012.4
2022-08-12T15:58:22.338Z,1012.4
2022-08-12T16:00:09.398Z,1012.4